Кольцово

Карта отелей и гостиниц, располагающихся рядом с аэропортом Кольцово :

Кольцово
Екатеринбург
Свердловская область 56° 44' 35.0412" N, 60° 48' 13.0788" E
Код аэродрома ИКАО
USSS
Код аэродрома RU
УССС
Координаты
N56.74307° E060.80363°
Превышение над уровнем моря
234
Основная полоса
08R/26L
Курс магнитный
079,7/259,7
Длина основной ВПП
3026
Ширина основной ВПП
53
Покрытие основной ВПП
Твёрдое
Освещение ВПП
Постоянное
Тип: 
Аэродром
Класс аэродрома: 
Международный
Принадлежность: 
ГА
Статус: 
Действующий
Сайт: 
www.koltsovo.ru
E-mail аэродрома: 
airport@koltsovo.ru
Страна: 
Россия
Регион: 
Свердловская область
Город: 
Екатеринбург
Дополнительная информация: 
Оператор: ПАО «Аэропорт Кольцово». Нкр.=(600)м. Совместного базирования. Стоянка ВС МО на С-В от КТА. Военный индекс: XSSS / ЬССС. Военный позывной: "Аленький". Базируется государственная (военная) авиация МОРФ (с 2013 г - 390-й отдельный транспортный смешанный авиационный полк).
Погода: 

Авиационная погода в Екатеринбурге

Регион: 
Погода METAR: 
USSS 291030Z 26009MPS CAVOK 21/04 Q1010 R26R/010060 NOSIG RMK QFE737/0982
Время наблюдения
2022-05-29T10:30:00Z
Температура C
21.0
Точка росы
4.0
Направление ветра
260
Скорость ветра (узлы)
17
Метео видимость
6.21
Облачность
CAVOK
Нижняя граница облачности (футы)
Явления погоды
Условия полета
VFR
Аэропорт подробнее: 


Найти трансфер

С помощью этой формы Вы можете найти трансфер из аэропорта Кольцово в город, аэропорт или вокзал:

Погода в аэропортах:

Авиационная погода в Богашево

Регион: 
Погода METAR: 
UNTT 291030Z 22002MPS 9999 -RA OVC048 16/11 Q1010 R21/190055 NOSIG RMK QFE742
Время наблюдения
2022-05-29T10:30:00Z
Температура C
16.0
Точка росы
11.0
Направление ветра
220
Скорость ветра (узлы)
4
Метео видимость
6.21
Облачность
OVC
Нижняя граница облачности (футы)
4800
Явления погоды
-RA
Условия полета
VFR
Аэропорт подробнее: 
OVC – сплошная облачность;
-RA - слабый дождь;

Авиационная погода в Нижнем Новгороде

Регион: 
Погода METAR: 
UWGG 291030Z 22007MPS 9999 TS BKN040CB 16/05 Q1010 R18L/090070 NOSIG
Время наблюдения
2022-05-29T10:30:00Z
Температура C
16.0
Точка росы
5.0
Направление ветра
220
Скорость ветра (узлы)
14
Метео видимость
6.21
Облачность
BKN
Нижняя граница облачности (футы)
4000
Явления погоды
TS
Условия полета
VFR
Аэропорт подробнее: 
BKN – значительная (рассеянная, разорванная) облачность;

Авиационная погода в Кадале

Регион: 
Погода METAR: 
UIAA 291030Z 29005MPS 9999 -SHRA SCT040CB 08/03 Q1002 R29/70D NOSIG RMK QFE693/0924
Время наблюдения
2022-05-29T10:30:00Z
Температура C
8.0
Точка росы
3.0
Направление ветра
290
Скорость ветра (узлы)
10
Метео видимость
6.21
Облачность
SCT
Нижняя граница облачности (футы)
4000
Явления погоды
-SHRA
Условия полета
VFR
Аэропорт подробнее: 
SCT – разбросанная отдельная облачность;
-SHRA - слабый ливневой дождь;

Авиационная погода в аэропорту Бесовец

Регион: 
Погода METAR: 
ULPB 291030Z VRB01MPS 9999 -RA SCT016 OVC043 14/12 Q1003 R19/09//60 NOSIG RMK QFE748/0998
Время наблюдения
2022-05-29T10:30:00Z
Температура C
14.0
Точка росы
12.0
Направление ветра
0
Скорость ветра (узлы)
2
Метео видимость
6.21
Облачность
SCT
OVC
Нижняя граница облачности (футы)
1600
4300
Явления погоды
-RA
Условия полета
VFR
Аэропорт подробнее: 
SCT – разбросанная отдельная облачность; OVC – сплошная облачность;
-RA - слабый дождь;